sensor_id;sensor_type;location;lat;lon;timestamp;pressure;altitude;pressure_sealevel;temperature;humidity
33454;BME280;39400;49.744;7.012;2023-08-06T00:02:15;94969.72;;;18.37;100.00
33454;BME280;39400;49.744;7.012;2023-08-06T00:04:41;94967.50;;;17.52;100.00
33454;BME280;39400;49.744;7.012;2023-08-06T00:07:06;94960.38;;;17.24;100.00
33454;BME280;39400;49.744;7.012;2023-08-06T00:09:31;94961.34;;;17.94;100.00
33454;BME280;39400;49.744;7.012;2023-08-06T00:11:57;94958.19;;;18.11;100.00
33454;BME280;39400;49.744;7.012;2023-08-06T00:14:22;94957.59;;;17.70;100.00
33454;BME280;39400;49.744;7.012;2023-08-06T00:16:47;94965.50;;;17.62;100.00
33454;BME280;39400;49.744;7.012;2023-08-06T00:19:13;94963.47;;;17.63;100.00
33454;BME280;39400;49.744;7.012;2023-08-06T00:21:38;94956.84;;;17.69;100.00
33454;BME280;39400;49.744;7.012;2023-08-06T00:24:03;94952.03;;;17.97;100.00
33454;BME280;39400;49.744;7.012;2023-08-06T00:26:29;94951.44;;;17.29;100.00
33454;BME280;39400;49.744;7.012;2023-08-06T00:28:54;94936.63;;;17.23;100.00
33454;BME280;39400;49.744;7.012;2023-08-06T00:31:19;94944.94;;;17.14;100.00
33454;BME280;39400;49.744;7.012;2023-08-06T00:33:45;94940.16;;;17.14;100.00
33454;BME280;39400;49.744;7.012;2023-08-06T00:36:10;94937.53;;;17.38;100.00
33454;BME280;39400;49.744;7.012;2023-08-06T00:38:35;94937.56;;;17.56;100.00
33454;BME280;39400;49.744;7.012;2023-08-06T00:41:00;94936.91;;;17.89;100.00
33454;BME280;39400;49.744;7.012;2023-08-06T00:43:26;94938.63;;;17.50;100.00
33454;BME280;39400;49.744;7.012;2023-08-06T00:45:51;94936.63;;;17.78;100.00
33454;BME280;39400;49.744;7.012;2023-08-06T00:48:17;94937.38;;;17.23;100.00
33454;BME280;39400;49.744;7.012;2023-08-06T00:50:42;94939.41;;;17.50;100.00
33454;BME280;39400;49.744;7.012;2023-08-06T00:53:08;94942.25;;;16.82;100.00
33454;BME280;39400;49.744;7.012;2023-08-06T00:55:34;94934.13;;;17.06;100.00
33454;BME280;39400;49.744;7.012;2023-08-06T00:58:00;94937.72;;;17.44;100.00
33454;BME280;39400;49.744;7.012;2023-08-06T01:00:26;94935.22;;;17.55;100.00
33454;BME280;39400;49.744;7.012;2023-08-06T01:02:53;94935.41;;;17.33;100.00
33454;BME280;39400;49.744;7.012;2023-08-06T01:05:20;94944.34;;;17.28;100.00
33454;BME280;39400;49.744;7.012;2023-08-06T01:11:21;94941.56;;;17.55;100.00
33454;BME280;39400;49.744;7.012;2023-08-06T01:13:55;94935.69;;;17.53;100.00
33454;BME280;39400;49.744;7.012;2023-08-06T01:16:23;94936.00;;;17.19;100.00
33454;BME280;39400;49.744;7.012;2023-08-06T01:18:49;94934.44;;;17.18;100.00
33454;BME280;39400;49.744;7.012;2023-08-06T01:21:15;94926.13;;;17.27;100.00
33454;BME280;39400;49.744;7.012;2023-08-06T01:23:42;94947.72;;;17.04;100.00
33454;BME280;39400;49.744;7.012;2023-08-06T01:26:36;94936.94;;;17.16;100.00
33454;BME280;39400;49.744;7.012;2023-08-06T01:29:08;94940.50;;;17.25;100.00
33454;BME280;39400;49.744;7.012;2023-08-06T01:31:37;94936.91;;;17.25;100.00
33454;BME280;39400;49.744;7.012;2023-08-06T01:34:17;94938.31;;;17.20;100.00
33454;BME280;39400;49.744;7.012;2023-08-06T01:36:43;94931.06;;;17.59;100.00
33454;BME280;39400;49.744;7.012;2023-08-06T01:39:09;94929.38;;;17.44;100.00
33454;BME280;39400;49.744;7.012;2023-08-06T01:41:34;94927.31;;;17.99;100.00
33454;BME280;39400;49.744;7.012;2023-08-06T01:43:59;94917.47;;;17.62;100.00
33454;BME280;39400;49.744;7.012;2023-08-06T01:46:25;94929.84;;;17.33;100.00
33454;BME280;39400;49.744;7.012;2023-08-06T01:48:50;94927.66;;;17.09;100.00
33454;BME280;39400;49.744;7.012;2023-08-06T01:51:15;94923.00;;;16.88;100.00
33454;BME280;39400;49.744;7.012;2023-08-06T01:53:41;94914.66;;;16.88;100.00
33454;BME280;39400;49.744;7.012;2023-08-06T01:56:06;94912.69;;;17.07;100.00
33454;BME280;39400;49.744;7.012;2023-08-06T01:58:31;94919.34;;;17.37;100.00
33454;BME280;39400;49.744;7.012;2023-08-06T02:00:57;94920.22;;;16.88;100.00
33454;BME280;39400;49.744;7.012;2023-08-06T02:03:23;94921.63;;;16.93;100.00
33454;BME280;39400;49.744;7.012;2023-08-06T02:05:48;94914.28;;;16.68;100.00
33454;BME280;39400;49.744;7.012;2023-08-06T02:08:13;94917.16;;;17.14;100.00
33454;BME280;39400;49.744;7.012;2023-08-06T02:10:39;94906.66;;;17.54;100.00
33454;BME280;39400;49.744;7.012;2023-08-06T02:13:06;94909.44;;;17.45;100.00
33454;BME280;39400;49.744;7.012;2023-08-06T02:15:31;94905.13;;;17.44;100.00
33454;BME280;39400;49.744;7.012;2023-08-06T02:17:57;94901.75;;;17.22;100.00
33454;BME280;39400;49.744;7.012;2023-08-06T02:20:23;94898.94;;;17.03;100.00
33454;BME280;39400;49.744;7.012;2023-08-06T02:22:48;94898.00;;;16.79;100.00
33454;BME280;39400;49.744;7.012;2023-08-06T02:25:13;94891.13;;;16.52;100.00
33454;BME280;39400;49.744;7.012;2023-08-06T02:27:39;94891.22;;;16.89;100.00
33454;BME280;39400;49.744;7.012;2023-08-06T02:30:05;94891.63;;;16.60;100.00
33454;BME280;39400;49.744;7.012;2023-08-06T02:32:31;94892.19;;;17.04;100.00
33454;BME280;39400;49.744;7.012;2023-08-06T02:34:56;94885.66;;;16.89;100.00
33454;BME280;39400;49.744;7.012;2023-08-06T02:37:21;94886.84;;;16.70;100.00
33454;BME280;39400;49.744;7.012;2023-08-06T02:39:47;94884.44;;;17.18;100.00
33454;BME280;39400;49.744;7.012;2023-08-06T02:42:12;94881.34;;;17.52;100.00
33454;BME280;39400;49.744;7.012;2023-08-06T02:44:38;94885.84;;;17.41;100.00
33454;BME280;39400;49.744;7.012;2023-08-06T02:47:04;94874.91;;;18.07;100.00
33454;BME280;39400;49.744;7.012;2023-08-06T02:49:29;94879.66;;;17.37;100.00
33454;BME280;39400;49.744;7.012;2023-08-06T02:51:55;94868.97;;;17.63;100.00
33454;BME280;39400;49.744;7.012;2023-08-06T02:54:20;94875.97;;;17.12;100.00
33454;BME280;39400;49.744;7.012;2023-08-06T02:56:46;94873.66;;;17.29;100.00
33454;BME280;39400;49.744;7.012;2023-08-06T02:59:17;94873.94;;;17.03;100.00
33454;BME280;39400;49.744;7.012;2023-08-06T03:02:02;94863.16;;;17.05;100.00
33454;BME280;39400;49.744;7.012;2023-08-06T03:04:38;94873.69;;;16.52;100.00
33454;BME280;39400;49.744;7.012;2023-08-06T03:07:04;94872.91;;;16.51;100.00
33454;BME280;39400;49.744;7.012;2023-08-06T03:09:38;94860.53;;;16.83;100.00
33454;BME280;39400;49.744;7.012;2023-08-06T03:12:04;94858.06;;;15.86;100.00
33454;BME280;39400;49.744;7.012;2023-08-06T03:14:30;94867.31;;;15.92;100.00
33454;BME280;39400;49.744;7.012;2023-08-06T03:16:57;94857.47;;;16.41;100.00
33454;BME280;39400;49.744;7.012;2023-08-06T03:19:23;94860.94;;;16.14;100.00
33454;BME280;39400;49.744;7.012;2023-08-06T03:21:48;94856.59;;;16.62;100.00
33454;BME280;39400;49.744;7.012;2023-08-06T03:24:14;94857.00;;;15.93;100.00
33454;BME280;39400;49.744;7.012;2023-08-06T03:26:40;94851.19;;;16.00;100.00
33454;BME280;39400;49.744;7.012;2023-08-06T03:29:06;94862.38;;;15.65;100.00
33454;BME280;39400;49.744;7.012;2023-08-06T03:31:33;94850.69;;;16.33;100.00
33454;BME280;39400;49.744;7.012;2023-08-06T03:33:59;94852.25;;;16.43;100.00
33454;BME280;39400;49.744;7.012;2023-08-06T03:36:26;94846.91;;;16.08;100.00
33454;BME280;39400;49.744;7.012;2023-08-06T03:38:52;94850.44;;;16.58;100.00
33454;BME280;39400;49.744;7.012;2023-08-06T03:41:17;94843.56;;;16.81;100.00
33454;BME280;39400;49.744;7.012;2023-08-06T03:43:43;94844.84;;;16.40;100.00
33454;BME280;39400;49.744;7.012;2023-08-06T03:46:14;94843.38;;;16.17;100.00
33454;BME280;39400;49.744;7.012;2023-08-06T03:48:40;94847.75;;;15.65;100.00
33454;BME280;39400;49.744;7.012;2023-08-06T03:51:05;94853.34;;;15.43;100.00
33454;BME280;39400;49.744;7.012;2023-08-06T03:53:31;94835.81;;;16.08;100.00
33454;BME280;39400;49.744;7.012;2023-08-06T03:55:57;94841.88;;;15.85;100.00
33454;BME280;39400;49.744;7.012;2023-08-06T03:58:22;94852.59;;;16.05;100.00
33454;BME280;39400;49.744;7.012;2023-08-06T04:00:48;94845.91;;;15.93;100.00
33454;BME280;39400;49.744;7.012;2023-08-06T04:03:13;94851.00;;;15.63;100.00
33454;BME280;39400;49.744;7.012;2023-08-06T04:05:39;94847.91;;;15.83;100.00
33454;BME280;39400;49.744;7.012;2023-08-06T04:08:04;94861.13;;;15.57;100.00
33454;BME280;39400;49.744;7.012;2023-08-06T04:10:30;94859.19;;;15.98;100.00
33454;BME280;39400;49.744;7.012;2023-08-06T04:12:55;94903.66;;;15.63;100.00
33454;BME280;39400;49.744;7.012;2023-08-06T04:15:20;94872.78;;;15.74;100.00
33454;BME280;39400;49.744;7.012;2023-08-06T04:17:45;94858.44;;;15.98;100.00
33454;BME280;39400;49.744;7.012;2023-08-06T04:20:11;94854.75;;;16.01;100.00
33454;BME280;39400;49.744;7.012;2023-08-06T04:22:36;94857.84;;;15.72;100.00
33454;BME280;39400;49.744;7.012;2023-08-06T04:25:03;94867.16;;;15.65;100.00
33454;BME280;39400;49.744;7.012;2023-08-06T04:27:28;94851.66;;;15.67;100.00
33454;BME280;39400;49.744;7.012;2023-08-06T04:29:54;94858.84;;;15.87;100.00
33454;BME280;39400;49.744;7.012;2023-08-06T04:32:19;94857.28;;;15.86;100.00
33454;BME280;39400;49.744;7.012;2023-08-06T04:34:48;94863.19;;;15.66;100.00
33454;BME280;39400;49.744;7.012;2023-08-06T04:37:15;94854.84;;;16.28;100.00
33454;BME280;39400;49.744;7.012;2023-08-06T04:39:40;94849.75;;;15.86;100.00
33454;BME280;39400;49.744;7.012;2023-08-06T04:42:06;94857.94;;;15.90;100.00
33454;BME280;39400;49.744;7.012;2023-08-06T04:44:31;94865.50;;;15.67;100.00
33454;BME280;39400;49.744;7.012;2023-08-06T04:46:56;94862.69;;;16.30;100.00
33454;BME280;39400;49.744;7.012;2023-08-06T04:49:22;94866.91;;;15.50;100.00
33454;BME280;39400;49.744;7.012;2023-08-06T04:51:48;94863.44;;;15.37;100.00
33454;BME280;39400;49.744;7.012;2023-08-06T04:54:13;94871.06;;;15.45;100.00
33454;BME280;39400;49.744;7.012;2023-08-06T04:56:39;94867.53;;;15.45;100.00
33454;BME280;39400;49.744;7.012;2023-08-06T04:59:04;94877.66;;;15.48;100.00
33454;BME280;39400;49.744;7.012;2023-08-06T05:01:29;94865.28;;;15.84;100.00
33454;BME280;39400;49.744;7.012;2023-08-06T05:03:55;94874.22;;;15.35;100.00
33454;BME280;39400;49.744;7.012;2023-08-06T05:06:20;94876.03;;;15.73;100.00
33454;BME280;39400;49.744;7.012;2023-08-06T05:08:45;94872.13;;;15.48;100.00
33454;BME280;39400;49.744;7.012;2023-08-06T05:11:10;94897.25;;;15.54;100.00
33454;BME280;39400;49.744;7.012;2023-08-06T05:13:36;94888.31;;;15.72;100.00
33454;BME280;39400;49.744;7.012;2023-08-06T05:16:01;94894.56;;;15.63;100.00
33454;BME280;39400;49.744;7.012;2023-08-06T05:18:26;94890.03;;;15.78;100.00
33454;BME280;39400;49.744;7.012;2023-08-06T05:20:52;94895.72;;;15.53;100.00
33454;BME280;39400;49.744;7.012;2023-08-06T05:23:17;94900.75;;;15.45;100.00
33454;BME280;39400;49.744;7.012;2023-08-06T05:25:42;94901.06;;;15.47;100.00
33454;BME280;39400;49.744;7.012;2023-08-06T05:28:08;94891.28;;;15.77;100.00
33454;BME280;39400;49.744;7.012;2023-08-06T05:30:33;94891.84;;;16.03;100.00
33454;BME280;39400;49.744;7.012;2023-08-06T05:32:59;94894.34;;;16.01;100.00
33454;BME280;39400;49.744;7.012;2023-08-06T05:35:24;94900.78;;;15.67;100.00
33454;BME280;39400;49.744;7.012;2023-08-06T05:37:52;94907.06;;;15.67;100.00
33454;BME280;39400;49.744;7.012;2023-08-06T05:40:18;94905.28;;;15.74;100.00
33454;BME280;39400;49.744;7.012;2023-08-06T05:42:43;94906.31;;;15.45;100.00
33454;BME280;39400;49.744;7.012;2023-08-06T05:45:09;94911.03;;;15.44;100.00
33454;BME280;39400;49.744;7.012;2023-08-06T05:47:34;94909.94;;;15.20;100.00
33454;BME280;39400;49.744;7.012;2023-08-06T05:49:59;94908.59;;;15.46;100.00
33454;BME280;39400;49.744;7.012;2023-08-06T05:52:25;94902.03;;;15.53;100.00
33454;BME280;39400;49.744;7.012;2023-08-06T05:54:50;94899.75;;;16.14;100.00
33454;BME280;39400;49.744;7.012;2023-08-06T05:57:16;94906.31;;;15.67;100.00
33454;BME280;39400;49.744;7.012;2023-08-06T05:59:41;94903.06;;;15.68;100.00
33454;BME280;39400;49.744;7.012;2023-08-06T06:02:07;94903.34;;;16.14;100.00
33454;BME280;39400;49.744;7.012;2023-08-06T06:04:51;94913.19;;;16.15;100.00
33454;BME280;39400;49.744;7.012;2023-08-06T06:07:35;94919.69;;;15.90;100.00
33454;BME280;39400;49.744;7.012;2023-08-06T06:10:00;94915.00;;;15.56;100.00
33454;BME280;39400;49.744;7.012;2023-08-06T06:12:26;94917.69;;;15.47;100.00
33454;BME280;39400;49.744;7.012;2023-08-06T06:14:51;94921.47;;;15.40;100.00
33454;BME280;39400;49.744;7.012;2023-08-06T06:17:17;94918.66;;;15.53;100.00
33454;BME280;39400;49.744;7.012;2023-08-06T06:19:42;94914.28;;;15.87;100.00
33454;BME280;39400;49.744;7.012;2023-08-06T06:22:07;94912.84;;;16.04;100.00
33454;BME280;39400;49.744;7.012;2023-08-06T06:24:33;94906.53;;;16.04;100.00
33454;BME280;39400;49.744;7.012;2023-08-06T06:26:58;94905.19;;;16.17;100.00
33454;BME280;39400;49.744;7.012;2023-08-06T06:29:24;94922.63;;;16.27;100.00
33454;BME280;39400;49.744;7.012;2023-08-06T06:31:49;94916.03;;;16.34;100.00
33454;BME280;39400;49.744;7.012;2023-08-06T06:34:14;94914.72;;;16.16;100.00
33454;BME280;39400;49.744;7.012;2023-08-06T06:36:40;94903.63;;;16.16;100.00
33454;BME280;39400;49.744;7.012;2023-08-06T06:39:05;94914.66;;;15.98;100.00
33454;BME280;39400;49.744;7.012;2023-08-06T06:41:30;94902.78;;;15.98;100.00
33454;BME280;39400;49.744;7.012;2023-08-06T06:47:31;94911.88;;;14.76;100.00
33454;BME280;39400;49.744;7.012;2023-08-06T06:53:24;94916.22;;;15.55;100.00
33454;BME280;39400;49.744;7.012;2023-08-06T06:55:49;94912.59;;;14.89;100.00
33454;BME280;39400;49.744;7.012;2023-08-06T06:58:16;94922.72;;;14.57;100.00
33454;BME280;39400;49.744;7.012;2023-08-06T07:00:42;94930.91;;;14.73;100.00
33454;BME280;39400;49.744;7.012;2023-08-06T07:03:07;94937.44;;;14.41;100.00
33454;BME280;39400;49.744;7.012;2023-08-06T07:05:32;94932.81;;;14.51;100.00
33454;BME280;39400;49.744;7.012;2023-08-06T07:07:58;94928.91;;;14.61;100.00
33454;BME280;39400;49.744;7.012;2023-08-06T07:10:23;94929.63;;;15.00;100.00
33454;BME280;39400;49.744;7.012;2023-08-06T07:12:48;94928.69;;;14.68;100.00
33454;BME280;39400;49.744;7.012;2023-08-06T07:15:14;94935.75;;;14.44;100.00
33454;BME280;39400;49.744;7.012;2023-08-06T07:17:39;94938.19;;;14.16;100.00
33454;BME280;39400;49.744;7.012;2023-08-06T07:20:05;94959.66;;;14.12;100.00
33454;BME280;39400;49.744;7.012;2023-08-06T07:22:31;94939.97;;;14.36;100.00
33454;BME280;39400;49.744;7.012;2023-08-06T07:24:56;94933.56;;;14.39;100.00
33454;BME280;39400;49.744;7.012;2023-08-06T07:27:21;94937.09;;;14.26;100.00
33454;BME280;39400;49.744;7.012;2023-08-06T07:29:46;94949.06;;;14.11;100.00
33454;BME280;39400;49.744;7.012;2023-08-06T07:32:12;94946.28;;;13.56;100.00
33454;BME280;39400;49.744;7.012;2023-08-06T07:34:37;94955.81;;;13.55;100.00
33454;BME280;39400;49.744;7.012;2023-08-06T07:37:02;94971.56;;;13.84;100.00
33454;BME280;39400;49.744;7.012;2023-08-06T07:39:28;94960.66;;;14.18;100.00
33454;BME280;39400;49.744;7.012;2023-08-06T07:41:53;94953.25;;;14.15;100.00
33454;BME280;39400;49.744;7.012;2023-08-06T07:44:18;94964.75;;;14.26;100.00
33454;BME280;39400;49.744;7.012;2023-08-06T07:46:44;94961.63;;;13.99;100.00
33454;BME280;39400;49.744;7.012;2023-08-06T07:49:09;94961.13;;;13.75;100.00
33454;BME280;39400;49.744;7.012;2023-08-06T07:51:34;94972.38;;;13.55;100.00
33454;BME280;39400;49.744;7.012;2023-08-06T07:54:00;94973.44;;;13.45;100.00
33454;BME280;39400;49.744;7.012;2023-08-06T07:56:25;94966.97;;;14.32;100.00
33454;BME280;39400;49.744;7.012;2023-08-06T07:58:50;94966.66;;;13.62;100.00
33454;BME280;39400;49.744;7.012;2023-08-06T08:01:16;94974.63;;;13.44;100.00
33454;BME280;39400;49.744;7.012;2023-08-06T08:03:41;94986.78;;;13.46;100.00
33454;BME280;39400;49.744;7.012;2023-08-06T08:06:06;95006.00;;;13.21;100.00
33454;BME280;39400;49.744;7.012;2023-08-06T08:08:31;95022.31;;;13.31;100.00
33454;BME280;39400;49.744;7.012;2023-08-06T08:10:57;94979.50;;;13.23;100.00
33454;BME280;39400;49.744;7.012;2023-08-06T08:13:22;95015.41;;;13.23;100.00
33454;BME280;39400;49.744;7.012;2023-08-06T08:15:47;95013.69;;;12.80;100.00
33454;BME280;39400;49.744;7.012;2023-08-06T08:18:13;95024.19;;;13.02;100.00
33454;BME280;39400;49.744;7.012;2023-08-06T08:20:38;95046.44;;;12.95;100.00
33454;BME280;39400;49.744;7.012;2023-08-06T08:23:03;95068.25;;;13.05;100.00
33454;BME280;39400;49.744;7.012;2023-08-06T08:25:29;95060.59;;;12.97;100.00
33454;BME280;39400;49.744;7.012;2023-08-06T08:27:55;95065.38;;;12.44;100.00
33454;BME280;39400;49.744;7.012;2023-08-06T08:30:20;95096.56;;;17.33;100.00
33454;BME280;39400;49.744;7.012;2023-08-06T08:32:46;95021.19;;;17.13;100.00
33454;BME280;39400;49.744;7.012;2023-08-06T08:35:12;95018.38;;;17.03;100.00
33454;BME280;39400;49.744;7.012;2023-08-06T08:37:37;95024.47;;;17.29;100.00
33454;BME280;39400;49.744;7.012;2023-08-06T08:40:03;95031.38;;;17.16;100.00
33454;BME280;39400;49.744;7.012;2023-08-06T08:42:28;95037.78;;;16.94;100.00
33454;BME280;39400;49.744;7.012;2023-08-06T08:44:54;95039.38;;;16.42;100.00
33454;BME280;39400;49.744;7.012;2023-08-06T08:47:20;95046.75;;;16.98;100.00
33454;BME280;39400;49.744;7.012;2023-08-06T08:49:46;95061.72;;;17.69;100.00
33454;BME280;39400;49.744;7.012;2023-08-06T08:52:14;95064.63;;;17.47;100.00
33454;BME280;39400;49.744;7.012;2023-08-06T08:54:40;95043.22;;;18.12;100.00
33454;BME280;39400;49.744;7.012;2023-08-06T08:57:06;95051.47;;;17.38;100.00
33454;BME280;39400;49.744;7.012;2023-08-06T08:59:33;95061.41;;;16.99;100.00
33454;BME280;39400;49.744;7.012;2023-08-06T09:02:00;95058.88;;;16.82;100.00
33454;BME280;39400;49.744;7.012;2023-08-06T09:04:28;95073.59;;;16.39;100.00
33454;BME280;39400;49.744;7.012;2023-08-06T09:06:56;95083.09;;;18.97;100.00
33454;BME280;39400;49.744;7.012;2023-08-06T09:09:42;95075.00;;;18.47;100.00
33454;BME280;39400;49.744;7.012;2023-08-06T09:12:14;95076.28;;;18.10;100.00
33454;BME280;39400;49.744;7.012;2023-08-06T09:14:39;95083.16;;;17.59;100.00
33454;BME280;39400;49.744;7.012;2023-08-06T09:17:05;95075.66;;;18.33;100.00
33454;BME280;39400;49.744;7.012;2023-08-06T09:19:30;95075.66;;;18.24;100.00
33454;BME280;39400;49.744;7.012;2023-08-06T09:21:56;95088.00;;;18.32;100.00
33454;BME280;39400;49.744;7.012;2023-08-06T09:24:21;95083.78;;;17.54;100.00
33454;BME280;39400;49.744;7.012;2023-08-06T09:26:46;95096.53;;;17.92;100.00
33454;BME280;39400;49.744;7.012;2023-08-06T09:29:12;95096.28;;;17.49;100.00
33454;BME280;39400;49.744;7.012;2023-08-06T09:31:44;95105.41;;;17.50;100.00
33454;BME280;39400;49.744;7.012;2023-08-06T09:34:21;95109.25;;;17.52;100.00
33454;BME280;39400;49.744;7.012;2023-08-06T09:36:48;95115.44;;;17.47;100.00
33454;BME280;39400;49.744;7.012;2023-08-06T09:39:15;95119.69;;;17.30;100.00
33454;BME280;39400;49.744;7.012;2023-08-06T09:41:42;95125.63;;;17.50;100.00
33454;BME280;39400;49.744;7.012;2023-08-06T09:44:17;95127.13;;;17.42;100.00
33454;BME280;39400;49.744;7.012;2023-08-06T09:46:51;95141.78;;;16.71;100.00
33454;BME280;39400;49.744;7.012;2023-08-06T09:49:18;95136.88;;;18.05;100.00
33454;BME280;39400;49.744;7.012;2023-08-06T09:51:44;95150.31;;;17.48;100.00
33454;BME280;39400;49.744;7.012;2023-08-06T09:54:12;95146.16;;;18.39;100.00
33454;BME280;39400;49.744;7.012;2023-08-06T09:56:38;95158.34;;;18.88;100.00
33454;BME280;39400;49.744;7.012;2023-08-06T09:59:07;95160.94;;;17.81;100.00
33454;BME280;39400;49.744;7.012;2023-08-06T10:01:34;95171.50;;;18.50;100.00
33454;BME280;39400;49.744;7.012;2023-08-06T10:04:00;95177.28;;;17.39;100.00
33454;BME280;39400;49.744;7.012;2023-08-06T10:06:27;95175.59;;;17.01;100.00
33454;BME280;39400;49.744;7.012;2023-08-06T10:08:53;95176.03;;;17.30;100.00
33454;BME280;39400;49.744;7.012;2023-08-06T10:11:21;95193.13;;;18.28;100.00
33454;BME280;39400;49.744;7.012;2023-08-06T10:13:47;95198.19;;;17.52;100.00
33454;BME280;39400;49.744;7.012;2023-08-06T10:16:14;95193.63;;;17.27;100.00
33454;BME280;39400;49.744;7.012;2023-08-06T10:18:40;95199.47;;;17.61;100.00
33454;BME280;39400;49.744;7.012;2023-08-06T10:21:08;95205.66;;;17.65;100.00
33454;BME280;39400;49.744;7.012;2023-08-06T10:23:36;95215.47;;;17.78;100.00
33454;BME280;39400;49.744;7.012;2023-08-06T10:26:01;95216.72;;;16.93;100.00
33454;BME280;39400;49.744;7.012;2023-08-06T10:28:37;95207.88;;;17.07;100.00
33454;BME280;39400;49.744;7.012;2023-08-06T10:31:03;95207.13;;;16.85;100.00
33454;BME280;39400;49.744;7.012;2023-08-06T10:33:45;95214.88;;;17.52;100.00
33454;BME280;39400;49.744;7.012;2023-08-06T10:36:11;95223.53;;;16.92;100.00
33454;BME280;39400;49.744;7.012;2023-08-06T10:38:50;95210.59;;;16.98;100.00
33454;BME280;39400;49.744;7.012;2023-08-06T10:41:29;95215.16;;;17.45;100.00
33454;BME280;39400;49.744;7.012;2023-08-06T10:44:07;95216.66;;;18.27;100.00
33454;BME280;39400;49.744;7.012;2023-08-06T10:46:33;95255.06;;;18.78;100.00
33454;BME280;39400;49.744;7.012;2023-08-06T10:49:17;95229.47;;;18.24;100.00
33454;BME280;39400;49.744;7.012;2023-08-06T10:51:43;95221.09;;;18.06;100.00
33454;BME280;39400;49.744;7.012;2023-08-06T10:54:08;95240.75;;;18.12;100.00
33454;BME280;39400;49.744;7.012;2023-08-06T10:56:39;95232.84;;;17.61;100.00
33454;BME280;39400;49.744;7.012;2023-08-06T10:59:05;95252.09;;;17.77;100.00
33454;BME280;39400;49.744;7.012;2023-08-06T11:01:34;95246.28;;;18.02;100.00
33454;BME280;39400;49.744;7.012;2023-08-06T11:04:02;95244.19;;;18.62;100.00
33454;BME280;39400;49.744;7.012;2023-08-06T11:06:33;95237.06;;;18.33;100.00
33454;BME280;39400;49.744;7.012;2023-08-06T11:08:58;95238.94;;;18.64;100.00
33454;BME280;39400;49.744;7.012;2023-08-06T11:11:43;95250.94;;;17.34;100.00
33454;BME280;39400;49.744;7.012;2023-08-06T11:14:30;95267.06;;;17.48;100.00
33454;BME280;39400;49.744;7.012;2023-08-06T11:16:55;95261.63;;;17.45;100.00
33454;BME280;39400;49.744;7.012;2023-08-06T11:19:22;95270.66;;;17.27;100.00
33454;BME280;39400;49.744;7.012;2023-08-06T11:21:48;95253.69;;;17.34;100.00
33454;BME280;39400;49.744;7.012;2023-08-06T11:24:13;95259.00;;;17.41;100.00
33454;BME280;39400;49.744;7.012;2023-08-06T11:26:38;95273.28;;;17.62;100.00
33454;BME280;39400;49.744;7.012;2023-08-06T11:29:04;95280.88;;;17.08;100.00
33454;BME280;39400;49.744;7.012;2023-08-06T11:31:29;95271.41;;;17.49;100.00
33454;BME280;39400;49.744;7.012;2023-08-06T11:33:54;95265.50;;;17.16;100.00
33454;BME280;39400;49.744;7.012;2023-08-06T11:36:34;95286.47;;;17.39;100.00
33454;BME280;39400;49.744;7.012;2023-08-06T11:39:00;95279.75;;;17.80;100.00
33454;BME280;39400;49.744;7.012;2023-08-06T11:41:28;95280.09;;;17.92;100.00
33454;BME280;39400;49.744;7.012;2023-08-06T11:43:54;95273.19;;;18.05;100.00
33454;BME280;39400;49.744;7.012;2023-08-06T11:46:19;95275.09;;;18.27;100.00
33454;BME280;39400;49.744;7.012;2023-08-06T11:48:55;95289.03;;;18.45;100.00
33454;BME280;39400;49.744;7.012;2023-08-06T11:51:24;95280.44;;;18.98;100.00
33454;BME280;39400;49.744;7.012;2023-08-06T11:53:49;95293.38;;;18.56;100.00
33454;BME280;39400;49.744;7.012;2023-08-06T11:56:15;95288.72;;;18.52;100.00
33454;BME280;39400;49.744;7.012;2023-08-06T11:58:41;95296.53;;;18.76;100.00
33454;BME280;39400;49.744;7.012;2023-08-06T12:01:07;95301.41;;;18.44;100.00
33454;BME280;39400;49.744;7.012;2023-08-06T12:03:32;95295.97;;;18.22;100.00
33454;BME280;39400;49.744;7.012;2023-08-06T12:05:57;95294.31;;;18.52;100.00
33454;BME280;39400;49.744;7.012;2023-08-06T12:08:26;95281.63;;;19.34;100.00
33454;BME280;39400;49.744;7.012;2023-08-06T12:10:52;95281.91;;;19.45;100.00
33454;BME280;39400;49.744;7.012;2023-08-06T12:13:17;95291.56;;;18.80;100.00
33454;BME280;39400;49.744;7.012;2023-08-06T12:15:42;95289.97;;;18.70;100.00
33454;BME280;39400;49.744;7.012;2023-08-06T12:18:07;95367.41;;;19.21;100.00
33454;BME280;39400;49.744;7.012;2023-08-06T12:20:33;95316.25;;;17.39;100.00
33454;BME280;39400;49.744;7.012;2023-08-06T12:22:58;95265.00;;;17.71;100.00
33454;BME280;39400;49.744;7.012;2023-08-06T12:25:23;95302.09;;;18.94;100.00
33454;BME280;39400;49.744;7.012;2023-08-06T12:27:49;95304.31;;;19.60;100.00
33454;BME280;39400;49.744;7.012;2023-08-06T12:30:14;95299.81;;;19.81;100.00
33454;BME280;39400;49.744;7.012;2023-08-06T12:32:40;95300.22;;;19.37;100.00
33454;BME280;39400;49.744;7.012;2023-08-06T12:35:05;95314.19;;;18.91;100.00
33454;BME280;39400;49.744;7.012;2023-08-06T12:37:31;95312.00;;;19.14;100.00
33454;BME280;39400;49.744;7.012;2023-08-06T12:39:56;95321.25;;;19.47;100.00
33454;BME280;39400;49.744;7.012;2023-08-06T12:42:21;95315.53;;;20.03;100.00
33454;BME280;39400;49.744;7.012;2023-08-06T12:44:50;95325.47;;;19.06;100.00
33454;BME280;39400;49.744;7.012;2023-08-06T12:47:16;95325.63;;;19.21;100.00
33454;BME280;39400;49.744;7.012;2023-08-06T12:49:41;95327.31;;;19.28;100.00
33454;BME280;39400;49.744;7.012;2023-08-06T12:52:07;95323.78;;;19.09;100.00
33454;BME280;39400;49.744;7.012;2023-08-06T12:54:32;95337.19;;;19.75;100.00
33454;BME280;39400;49.744;7.012;2023-08-06T12:56:57;95334.59;;;18.79;100.00
33454;BME280;39400;49.744;7.012;2023-08-06T12:59:22;95336.75;;;18.93;100.00